Time;durP1;ratioP1;P1;durP2;ratioP2;P2;SDS_P1;SDS_P2;PMS_P1;PMS_P2;Temp;Humidity;BMP_temperature;BMP_pressure;BME280_temperature;BME280_humidity;BME280_pressure;Samples;Min_cycle;Max_cycle;Signal;HPM_P1;HPM_P2
2022/09/03 00:02:31;;;;;;;9.93;6.15;;;;;;;15.36;100.00;100237.53;5053116;28;19917;-77
2022/09/03 00:05:06;;;;;;;12.30;6.57;;;;;;;15.36;100.00;100241.06;5053477;28;20443;-76
2022/09/03 00:07:42;;;;;;;11.20;6.38;;;;;;;15.27;100.00;100236.44;5052994;28;20065;-78
2022/09/03 00:10:15;;;;;;;14.43;7.30;;;;;;;15.15;100.00;100235.59;5053061;28;20129;-78
2022/09/03 00:12:46;;;;;;;9.85;7.20;;;;;;;15.16;100.00;100242.66;5053275;28;20048;-77
2022/09/03 00:15:17;;;;;;;11.77;7.32;;;;;;;15.06;100.00;100249.75;5054097;28;20102;-87
2022/09/03 00:17:51;;;;;;;14.63;6.72;;;;;;;15.00;100.00;100246.69;5053491;28;20436;-88
2022/09/03 00:20:27;;;;;;;11.60;6.00;;;;;;;14.88;100.00;100241.28;5053105;28;20076;-78
2022/09/03 00:23:00;;;;;;;11.77;5.95;;;;;;;14.78;100.00;100237.63;5053159;28;20107;-78
2022/09/03 00:25:34;;;;;;;11.02;5.95;;;;;;;14.75;100.00;100243.22;5052832;28;20498;-81
2022/09/03 00:28:07;;;;;;;10.32;5.88;;;;;;;14.71;100.00;100236.38;5051399;28;20057;-79
2022/09/03 00:30:35;;;;;;;;;;;;;;;14.65;100.00;100236.84;5053409;28;20079;-78
2022/09/03 00:33:09;;;;;;;9.55;6.07;;;;;;;14.58;100.00;100235.63;5052492;28;19916;-77
2022/09/03 00:35:43;;;;;;;;;;;;;;;14.55;100.00;100235.84;5053128;28;20060;-78
2022/09/03 00:38:11;;;;;;;12.52;6.35;;;;;;;14.54;100.00;100242.19;5052797;28;20016;-78
2022/09/03 00:40:53;;;;;;;10.02;5.90;;;;;;;14.54;100.00;100242.19;5052642;28;20057;-78
2022/09/03 00:43:31;;;;;;;9.70;6.45;;;;;;;14.54;100.00;100236.81;5052531;28;20048;-77
2022/09/03 00:46:11;;;;;;;11.23;6.28;;;;;;;14.53;100.00;100241.34;5052851;28;20047;-81
2022/09/03 00:48:53;;;;;;;11.77;6.68;;;;;;;14.49;100.00;100239.03;5052926;28;20107;-84
2022/09/03 00:51:33;;;;;;;9.43;6.22;;;;;;;14.44;100.00;100242.00;5052309;28;20123;-83
2022/09/03 00:54:12;;;;;;;11.07;6.05;;;;;;;14.45;100.00;100229.47;5052582;28;20041;-83
2022/09/03 00:56:51;;;;;;;10.43;6.63;;;;;;;14.54;100.00;100244.88;5052358;28;20091;-82
2022/09/03 00:59:34;;;;;;;12.15;5.88;;;;;;;14.62;100.00;100252.34;5052246;28;20041;-82
2022/09/03 01:02:13;;;;;;;8.48;5.78;;;;;;;14.58;100.00;100251.72;5052726;28;20068;-82
2022/09/03 01:04:54;;;;;;;9.40;5.60;;;;;;;14.59;100.00;100248.06;5052300;28;20115;-81
2022/09/03 01:07:38;;;;;;;8.20;5.30;;;;;;;14.57;100.00;100241.94;5052029;28;20036;-81
2022/09/03 01:10:18;;;;;;;9.65;5.82;;;;;;;14.49;100.00;100247.06;5052275;28;20487;-81
2022/09/03 01:12:55;;;;;;;8.90;5.50;;;;;;;14.39;100.00;100243.34;5052521;28;20041;-82
2022/09/03 01:15:32;;;;;;;10.32;6.05;;;;;;;14.30;100.00;100240.38;5051658;28;20048;-82
2022/09/03 01:18:11;;;;;;;10.00;5.57;;;;;;;14.29;100.00;100246.72;5052368;28;20041;-77
2022/09/03 01:20:52;;;;;;;10.85;6.15;;;;;;;14.22;100.00;100245.47;5051326;28;20108;-78
2022/09/03 01:23:39;;;;;;;9.50;5.25;;;;;;;14.18;100.00;100259.22;5052021;28;20047;-78
2022/09/03 01:26:28;;;;;;;12.63;5.85;;;;;;;14.16;100.00;100262.00;5051752;28;20063;-77
2022/09/03 01:29:06;;;;;;;9.50;5.53;;;;;;;14.08;100.00;100261.72;5051996;28;20059;-78
2022/09/03 01:31:43;;;;;;;10.05;5.68;;;;;;;14.08;100.00;100266.22;5052193;28;20099;-76
2022/09/03 01:34:21;;;;;;;11.50;5.75;;;;;;;14.06;100.00;100263.66;5051711;28;20033;-76
2022/09/03 01:36:58;;;;;;;13.88;6.10;;;;;;;14.04;100.00;100262.94;5052001;28;20085;-77
2022/09/03 01:39:34;;;;;;;9.98;5.80;;;;;;;14.01;100.00;100263.16;5051592;28;20033;-78
2022/09/03 01:42:14;;;;;;;9.20;5.38;;;;;;;14.02;100.00;100264.88;5051570;28;20028;-80
2022/09/03 01:45:24;;;;;;;10.55;4.97;;;;;;;14.00;100.00;100267.69;5051919;28;20509;-79
2022/09/03 01:48:04;;;;;;;10.23;5.35;;;;;;;14.04;100.00;100263.78;5051356;28;20573;-80
2022/09/03 01:50:42;;;;;;;9.88;5.85;;;;;;;14.11;100.00;100266.88;5051409;28;20132;-80
2022/09/03 01:53:25;;;;;;;8.90;5.43;;;;;;;14.10;100.00;100273.22;5051560;28;20415;-79
2022/09/03 01:56:08;;;;;;;9.50;5.43;;;;;;;14.13;100.00;100267.63;5051594;28;20036;-79
2022/09/03 01:58:41;;;;;;;;;;;;;;;14.06;100.00;100270.88;5052010;28;20047;-83
2022/09/03 02:01:17;;;;;;;8.90;5.10;;;;;;;14.04;100.00;100265.63;5051478;28;19916;-83
2022/09/03 02:03:45;;;;;;;7.95;4.60;;;;;;;14.12;100.00;100271.28;5051548;28;20047;-80
2022/09/03 02:06:13;;;;;;;16.05;5.30;;;;;;;14.09;100.00;100271.50;5051425;28;20367;-80
2022/09/03 02:08:41;;;;;;;11.55;5.43;;;;;;;14.13;100.00;100266.75;5051184;28;20033;-76
2022/09/03 02:11:10;;;;;;;10.75;5.32;;;;;;;14.15;100.00;100273.72;5051065;28;20037;-76
2022/09/03 02:13:41;;;;;;;10.98;5.43;;;;;;;14.06;100.00;100278.91;5051120;28;20064;-77
2022/09/03 02:16:14;;;;;;;10.48;5.47;;;;;;;13.89;100.00;100281.00;5051493;28;20072;-78
2022/09/03 02:18:45;;;;;;;9.57;5.28;;;;;;;13.79;100.00;100273.75;5051338;28;20045;-80
2022/09/03 02:21:18;;;;;;;9.75;5.47;;;;;;;13.68;100.00;100277.22;5051418;28;20064;-79
2022/09/03 02:23:48;;;;;;;10.93;5.45;;;;;;;13.64;100.00;100276.59;5051436;28;20419;-80
2022/09/03 02:26:18;;;;;;;11.55;5.65;;;;;;;13.62;100.00;100278.53;5050851;28;20124;-79
2022/09/03 02:28:46;;;;;;;9.32;5.40;;;;;;;13.57;100.00;100277.13;5051643;28;20037;-80
2022/09/03 02:31:16;;;;;;;10.30;5.35;;;;;;;13.54;100.00;100278.22;5053216;28;20072;-77
2022/09/03 02:33:47;;;;;;;12.02;6.10;;;;;;;13.46;100.00;100275.22;5055020;28;20106;-77
2022/09/03 02:36:19;;;;;;;12.52;6.00;;;;;;;13.48;100.00;100267.94;5054940;28;20079;-79
2022/09/03 02:38:47;;;;;;;9.10;5.70;;;;;;;13.56;100.00;100270.91;5054869;28;20037;-80
2022/09/03 02:41:16;;;;;;;11.60;5.47;;;;;;;13.55;100.00;100277.25;5054711;28;20048;-78
2022/09/03 02:43:49;;;;;;;12.48;5.78;;;;;;;13.49;100.00;100276.81;5054772;28;20040;-79
2022/09/03 02:46:22;;;;;;;;;;;;;;;13.43;100.00;100270.09;5055551;28;20124;-78
2022/09/03 02:48:50;;;;;;;9.50;5.72;;;;;;;13.41;100.00;100278.25;5054999;28;19916;-77
2022/09/03 02:51:19;;;;;;;12.15;5.20;;;;;;;13.48;100.00;100280.47;5054482;28;20435;-78
2022/09/03 02:53:47;;;;;;;9.65;5.00;;;;;;;13.43;100.00;100267.44;5054596;28;20483;-77
2022/09/03 02:56:18;;;;;;;7.88;5.10;;;;;;;13.43;100.00;100273.63;5054688;28;20047;-78
2022/09/03 02:58:46;;;;;;;13.43;5.80;;;;;;;13.42;100.00;100276.44;5054738;28;20113;-77
2022/09/03 03:01:14;;;;;;;12.32;5.30;;;;;;;13.39;100.00;100273.94;5054360;28;20115;-78
2022/09/03 03:03:53;;;;;;;13.50;5.68;;;;;;;13.34;100.00;100273.44;5054455;28;20041;-77
2022/09/03 03:06:21;;;;;;;12.60;5.38;;;;;;;13.27;100.00;100281.03;5054680;28;20045;-77
2022/09/03 03:08:51;;;;;;;9.13;5.78;;;;;;;13.22;100.00;100279.63;5055020;28;20086;-78
2022/09/03 03:11:21;;;;;;;8.45;5.45;;;;;;;13.31;100.00;100279.00;5054505;28;20043;-78
2022/09/03 03:13:50;;;;;;;9.73;5.15;;;;;;;13.43;100.00;100278.13;5054578;28;20069;-77
2022/09/03 03:16:18;;;;;;;7.97;5.20;;;;;;;13.40;100.00;100278.34;5054594;28;20043;-78
2022/09/03 03:18:46;;;;;;;8.95;4.82;;;;;;;13.36;100.00;100276.84;5054330;28;20124;-77
2022/09/03 03:21:17;;;;;;;8.90;5.10;;;;;;;13.36;100.00;100280.38;5054052;28;20344;-78
2022/09/03 03:23:46;;;;;;;8.02;4.90;;;;;;;13.28;100.00;100284.56;5054133;28;20111;-78
2022/09/03 03:26:17;;;;;;;11.32;5.47;;;;;;;13.26;100.00;100282.00;5053893;28;20037;-78
2022/09/03 03:28:47;;;;;;;10.52;5.18;;;;;;;13.33;100.00;100282.44;5054071;28;20037;-77
2022/09/03 03:31:18;;;;;;;11.38;5.53;;;;;;;13.34;100.00;100285.00;5053839;28;20045;-77
2022/09/03 03:33:52;;;;;;;10.20;5.60;;;;;;;13.28;100.00;100287.25;5054071;28;20041;-79
2022/09/03 03:36:23;;;;;;;9.45;5.85;;;;;;;13.18;100.00;100295.91;5053947;28;20037;-78
2022/09/03 03:38:54;;;;;;;10.95;5.30;;;;;;;13.14;100.00;100294.41;5053820;28;20041;-78
2022/09/03 03:41:23;;;;;;;11.07;4.93;;;;;;;13.21;100.00;100294.00;5053529;28;20037;-78
2022/09/03 03:43:53;;;;;;;7.32;5.30;;;;;;;13.23;100.00;100297.47;5053295;28;20040;-78
2022/09/03 03:46:22;;;;;;;9.10;5.13;;;;;;;13.28;100.00;100295.28;5053949;28;20037;-77
2022/09/03 03:48:51;;;;;;;11.70;5.13;;;;;;;13.26;100.00;100297.22;5053649;28;20056;-77
2022/09/03 03:51:21;;;;;;;9.90;5.07;;;;;;;13.28;100.00;100289.94;5053310;28;20487;-77
2022/09/03 03:53:49;;;;;;;9.45;5.45;;;;;;;13.15;100.00;100301.50;5053341;28;20048;-76
2022/09/03 03:56:17;;;;;;;9.13;5.30;;;;;;;13.09;100.00;100312.63;5053392;28;20036;-77
2022/09/03 03:58:47;;;;;;;8.73;5.38;;;;;;;13.03;100.00;100305.03;5053482;28;20044;-78
2022/09/03 04:01:17;;;;;;;9.73;5.35;;;;;;;12.99;100.00;100300.81;5053058;28;20041;-79
2022/09/03 04:03:46;;;;;;;11.70;5.72;;;;;;;12.96;100.00;100306.41;5053128;28;20044;-78
2022/09/03 04:06:16;;;;;;;11.23;5.00;;;;;;;13.00;100.00;100307.03;5052992;28;20037;-77
2022/09/03 04:08:47;;;;;;;12.13;5.50;;;;;;;13.00;100.00;100313.25;5054075;28;20041;-80
2022/09/03 04:11:18;;;;;;;10.45;5.50;;;;;;;12.97;100.00;100313.47;5053912;28;20040;-75
2022/09/03 04:13:47;;;;;;;10.07;5.63;;;;;;;12.98;100.00;100314.31;5053499;28;20083;-77
2022/09/03 04:16:18;;;;;;;11.35;5.68;;;;;;;12.97;100.00;100312.63;5052947;28;20114;-75
2022/09/03 04:18:48;;;;;;;9.32;5.00;;;;;;;12.94;100.00;100304.81;5053002;28;20037;-75
2022/09/03 04:21:19;;;;;;;9.18;5.03;;;;;;;12.94;100.00;100312.84;5053170;28;20075;-75
2022/09/03 04:23:50;;;;;;;9.63;5.65;;;;;;;12.96;100.00;100322.47;5053085;28;20136;-74
2022/09/03 04:26:19;;;;;;;11.95;5.38;;;;;;;13.00;100.00;100323.97;5052765;28;20442;-75
2022/09/03 04:28:48;;;;;;;11.55;5.53;;;;;;;13.01;100.00;100322.13;5052914;28;20040;-75
2022/09/03 04:31:19;;;;;;;10.45;4.95;;;;;;;13.02;100.00;100321.16;5052466;28;20118;-75
2022/09/03 04:33:48;;;;;;;11.88;5.57;;;;;;;13.00;100.00;100329.31;5053021;28;20045;-77
2022/09/03 04:36:17;;;;;;;11.85;5.70;;;;;;;13.04;100.00;100336.19;5052745;28;20037;-76
2022/09/03 04:38:47;;;;;;;8.57;4.93;;;;;;;13.11;100.00;100321.38;5052605;28;20041;-77
2022/09/03 04:41:20;;;;;;;10.50;5.18;;;;;;;13.33;100.00;100319.94;5051261;28;20451;-76
2022/09/03 04:43:50;;;;;;;12.13;5.40;;;;;;;13.57;100.00;100325.38;5051069;28;20400;-77
2022/09/03 04:46:20;;;;;;;10.07;5.82;;;;;;;13.62;100.00;100326.78;5052294;28;20544;-76
2022/09/03 04:48:49;;;;;;;11.68;5.60;;;;;;;13.49;100.00;100335.78;5052893;28;20435;-77
2022/09/03 04:51:20;;;;;;;16.30;6.03;;;;;;;13.45;100.00;100335.16;5052331;28;20372;-77
2022/09/03 04:53:53;;;;;;;10.07;6.03;;;;;;;13.53;100.00;100342.66;5051545;28;20053;-78
2022/09/03 04:56:24;;;;;;;10.32;6.07;;;;;;;13.74;100.00;100335.75;5052118;28;20044;-77
2022/09/03 04:58:55;;;;;;;10.43;6.10;;;;;;;13.92;100.00;100337.09;5052387;28;20553;-78
2022/09/03 05:01:26;;;;;;;10.23;5.60;;;;;;;14.07;100.00;100340.47;5052284;28;20041;-78
2022/09/03 05:03:56;;;;;;;11.60;5.90;;;;;;;14.21;100.00;100340.34;5052305;28;20037;-78
2022/09/03 05:06:25;;;;;;;10.30;5.72;;;;;;;14.30;100.00;100336.97;5052301;28;20051;-78
2022/09/03 05:08:55;;;;;;;8.65;5.63;;;;;;;14.26;100.00;100332.78;5051966;28;20036;-78
2022/09/03 05:11:26;;;;;;;12.57;6.30;;;;;;;14.40;100.00;100339.81;5050525;28;20060;-78
2022/09/03 05:13:56;;;;;;;11.10;6.00;;;;;;;14.55;100.00;100341.38;5051950;28;20037;-78
2022/09/03 05:16:26;;;;;;;11.23;5.68;;;;;;;14.71;100.00;100338.41;5050512;28;20041;-78
2022/09/03 05:18:59;;;;;;;10.30;5.97;;;;;;;14.92;100.00;100340.41;5052031;28;20051;-79
2022/09/03 05:21:29;;;;;;;11.07;5.90;;;;;;;15.15;100.00;100345.75;5051727;28;20040;-78
2022/09/03 05:24:00;;;;;;;10.05;6.20;;;;;;;15.19;100.00;100343.66;5051941;28;20045;-77
2022/09/03 05:26:32;;;;;;;8.93;6.07;;;;;;;15.19;100.00;100343.66;5051785;28;20533;-76
2022/09/03 05:29:04;;;;;;;12.50;6.53;;;;;;;15.31;100.00;100345.38;5051939;28;20119;-79
2022/09/03 05:31:32;;;;;;;9.63;5.75;;;;;;;15.45;100.00;100331.72;5051559;28;20475;-77
2022/09/03 05:34:03;;;;;;;9.23;5.95;;;;;;;15.65;100.00;100335.56;5051816;28;20473;-77
2022/09/03 05:36:34;;;;;;;10.55;5.60;;;;;;;15.81;100.00;100340.53;5051734;28;20464;-75
2022/09/03 05:39:03;;;;;;;10.07;5.70;;;;;;;15.85;100.00;100336.63;5052025;28;20044;-79
2022/09/03 05:41:33;;;;;;;9.43;5.72;;;;;;;15.78;100.00;100339.94;5049969;28;20043;-76
2022/09/03 05:44:02;;;;;;;10.55;5.80;;;;;;;15.88;100.00;100336.38;5049980;28;20051;-77
2022/09/03 05:46:33;;;;;;;11.57;5.28;;;;;;;15.92;100.00;100337.84;5050810;28;20120;-79
2022/09/03 05:49:02;;;;;;;9.65;5.57;;;;;;;15.89;100.00;100330.00;5051622;28;20051;-77
2022/09/03 05:51:32;;;;;;;10.27;5.22;;;;;;;15.98;100.00;100342.72;5050143;28;20147;-77
2022/09/03 05:54:00;;;;;;;10.40;5.85;;;;;;;15.95;100.00;100337.59;5051917;28;20049;-75
2022/09/03 05:56:31;;;;;;;13.80;5.88;;;;;;;16.07;100.00;100332.19;5051173;28;20041;-76
2022/09/03 05:59:04;;;;;;;8.07;5.25;;;;;;;16.29;100.00;100335.69;5050028;28;20048;-78
2022/09/03 06:01:33;;;;;;;10.23;5.60;;;;;;;16.60;100.00;100350.16;5051309;28;20123;-76
2022/09/03 06:04:03;;;;;;;11.20;5.60;;;;;;;16.70;100.00;100346.72;5051375;28;20380;-75
2022/09/03 06:06:33;;;;;;;7.78;5.18;;;;;;;16.72;100.00;100352.84;5053907;28;20545;-75
2022/09/03 06:09:04;;;;;;;11.65;5.82;;;;;;;16.65;100.00;100343.53;5055568;28;20037;-77
2022/09/03 06:11:34;;;;;;;8.05;5.22;;;;;;;16.80;100.00;100350.34;5055297;28;20037;-78
2022/09/03 06:14:06;;;;;;;8.60;5.50;;;;;;;16.96;100.00;100345.34;5055628;28;20044;-82
2022/09/03 06:16:37;;;;;;;11.13;6.22;;;;;;;17.12;100.00;100351.16;5055953;28;20041;-78
2022/09/03 06:19:09;;;;;;;8.85;5.38;;;;;;;17.29;100.00;100344.31;5055283;28;20390;-79
2022/09/03 06:21:38;;;;;;;10.88;5.65;;;;;;;17.76;100.00;100341.13;5055068;28;20033;-78
2022/09/03 06:24:07;;;;;;;8.93;5.25;;;;;;;18.38;100.00;100337.34;5054961;28;20119;-78
2022/09/03 06:26:36;;;;;;;9.48;5.30;;;;;;;19.12;100.00;100335.78;5054853;28;20094;-76
2022/09/03 06:29:07;;;;;;;7.85;5.13;;;;;;;19.93;100.00;100336.09;5054978;28;20079;-75
2022/09/03 06:31:35;;;;;;;8.95;5.25;;;;;;;19.96;100.00;100330.38;5054720;28;20455;-76
2022/09/03 06:34:04;;;;;;;9.23;5.03;;;;;;;20.15;100.00;100334.84;5053080;28;20136;-76
2022/09/03 06:36:33;;;;;;;8.77;5.28;;;;;;;20.21;100.00;100331.53;5054450;28;20055;-76
2022/09/03 06:39:01;;;;;;;7.38;4.90;;;;;;;20.27;100.00;100332.78;5056235;28;20140;-73
2022/09/03 06:41:34;;;;;;;9.10;5.43;;;;;;;19.73;100.00;100329.94;5056536;28;20033;-76
2022/09/03 06:44:05;;;;;;;10.57;5.20;;;;;;;19.58;100.00;100319.72;5054818;28;20132;-80
2022/09/03 06:46:37;;;;;;;9.00;5.55;;;;;;;20.16;100.00;100316.72;5048382;28;20049;-79
2022/09/03 06:49:07;;;;;;;9.63;5.10;;;;;;;20.40;100.00;100322.41;5055450;28;20037;-77
2022/09/03 06:51:36;;;;;;;9.60;5.28;;;;;;;20.72;100.00;100321.91;5055353;28;20387;-76
2022/09/03 06:54:07;;;;;;;9.90;5.60;;;;;;;20.93;100.00;100316.16;5054834;28;20055;-76
2022/09/03 06:56:36;;;;;;;10.75;5.80;;;;;;;20.94;100.00;100320.59;5054529;28;20055;-77
2022/09/03 06:59:09;;;;;;;9.53;5.97;;;;;;;20.29;100.00;100328.06;5054670;28;20055;-77
2022/09/03 07:01:40;;;;;;;12.50;6.22;;;;;;;19.83;100.00;100324.47;5054767;28;20612;-79
2022/09/03 07:04:14;;;;;;;10.27;6.80;;;;;;;19.64;100.00;100320.00;5054625;28;20055;-78
2022/09/03 07:06:45;;;;;;;9.82;6.35;;;;;;;19.65;100.00;100326.25;5054463;28;20072;-78
2022/09/03 07:09:14;;;;;;;10.60;6.10;;;;;;;19.53;100.00;100325.56;5054499;28;20063;-76
2022/09/03 07:11:46;;;;;;;14.52;7.35;;;;;;;19.53;100.00;100320.16;5052837;28;20105;-76
2022/09/03 07:14:17;;;;;;;11.80;6.97;;;;;;;19.62;100.00;100316.59;5054763;28;20044;-76
2022/09/03 07:16:48;;;;;;;13.65;7.53;;;;;;;19.63;100.00;100320.16;5053478;28;20052;-78
2022/09/03 07:19:17;;;;;;;11.60;7.55;;;;;;;19.63;100.00;100309.34;5054256;28;20391;-72
2022/09/03 07:21:45;;;;;;;11.85;6.88;;;;;;;19.74;100.00;100314.56;5053965;28;20056;-75
2022/09/03 07:24:20;;;;;;;11.93;7.10;;;;;;;19.65;100.00;100318.16;5050577;28;20352;-74
2022/09/03 07:26:48;;;;;;;10.60;6.85;;;;;;;19.61;100.00;100314.06;5054193;28;20041;-74
2022/09/03 07:29:18;;;;;;;11.32;6.80;;;;;;;19.49;100.00;100307.91;5053921;28;20041;-75
2022/09/03 07:31:51;;;;;;;11.40;6.72;;;;;;;19.26;100.00;100315.53;5053778;28;20045;-75
2022/09/03 07:34:23;;;;;;;10.15;6.40;;;;;;;19.43;100.00;100309.38;5054224;28;20051;-75
2022/09/03 07:36:53;;;;;;;9.13;6.28;;;;;;;19.55;100.00;100309.19;5054278;28;20043;-75
2022/09/03 07:39:21;;;;;;;10.20;6.70;;;;;;;19.65;100.00;100310.03;5054012;28;20434;-75
2022/09/03 07:41:50;;;;;;;13.07;6.30;;;;;;;19.61;100.00;100306.78;5052387;28;20041;-76
2022/09/03 07:44:19;;;;;;;9.85;5.80;;;;;;;19.64;100.00;100311.03;5054077;28;20037;-73
2022/09/03 07:46:50;;;;;;;9.02;5.88;;;;;;;19.75;100.00;100320.81;5053210;28;20367;-76
2022/09/03 07:49:21;;;;;;;9.75;5.35;;;;;;;19.76;100.00;100317.94;5054126;28;20132;-84
2022/09/03 07:51:53;;;;;;;8.60;4.47;;;;;;;19.76;100.00;100315.25;5052650;28;20049;-83
2022/09/03 07:54:22;;;;;;;9.25;4.57;;;;;;;19.81;100.00;100312.09;5059551;28;20041;-76
2022/09/03 07:56:51;;;;;;;6.45;3.75;;;;;;;20.00;100.00;100314.72;5052064;28;20041;-80
2022/09/03 07:59:21;;;;;;;6.68;3.25;;;;;;;20.05;100.00;100316.94;5053603;28;20123;-81
2022/09/03 08:01:51;;;;;;;8.43;3.97;;;;;;;20.03;100.00;100325.22;5053179;28;20045;-80
2022/09/03 08:04:20;;;;;;;9.02;3.72;;;;;;;19.95;100.00;100325.97;5053774;28;20369;-74
2022/09/03 08:06:49;;;;;;;7.03;4.10;;;;;;;20.15;100.00;100324.00;5053573;28;20037;-80
2022/09/03 08:09:17;;;;;;;8.55;3.63;;;;;;;20.20;100.00;100327.13;5053175;28;20065;-76
2022/09/03 08:11:45;;;;;;;11.32;3.70;;;;;;;20.27;100.00;100327.38;5053153;28;20037;-76
2022/09/03 08:14:15;;;;;;;7.53;3.70;;;;;;;20.15;100.00;100333.97;5053156;28;20044;-76
2022/09/03 08:16:46;;;;;;;8.13;3.85;;;;;;;20.02;100.00;100329.78;5053234;28;20412;-77
2022/09/03 08:19:17;;;;;;;6.80;3.70;;;;;;;20.21;100.00;100319.84;5053325;28;20044;-77
2022/09/03 08:21:45;;;;;;;6.68;3.70;;;;;;;20.17;100.00;100326.56;5053235;28;20041;-74
2022/09/03 08:24:16;;;;;;;7.28;3.90;;;;;;;20.15;100.00;100325.88;5053272;28;20037;-84
2022/09/03 08:26:44;;;;;;;7.50;3.72;;;;;;;19.97;100.00;100321.25;5051460;28;20048;-82
2022/09/03 08:29:20;;;;;;;7.13;3.75;;;;;;;20.05;100.00;100322.38;5051736;28;20041;-78
2022/09/03 08:31:48;;;;;;;6.03;3.53;;;;;;;20.04;100.00;100316.09;5051464;28;20348;-81
2022/09/03 08:34:18;;;;;;;6.72;3.47;;;;;;;20.14;100.00;100319.59;5052738;28;20045;-77
2022/09/03 08:36:47;;;;;;;9.50;3.83;;;;;;;20.11;100.00;100319.91;5051187;28;20049;-77
2022/09/03 08:39:15;;;;;;;8.18;3.90;;;;;;;20.10;100.00;100325.47;5052543;28;20124;-77
2022/09/03 08:42:13;;;;;;;9.02;3.70;;;;;;;20.27;100.00;100324.66;5052806;28;20048;-78
2022/09/03 08:44:46;;;;;;;6.57;3.63;;;;;;;20.20;100.00;100328.97;5037197;28;20048;-79
2022/09/03 08:47:16;;;;;;;;;;;;;;;20.27;100.00;100327.38;5032688;28;20060;-78
2022/09/03 08:49:50;;;;;;;9.25;4.05;;;;;;;20.39;100.00;100325.28;5030670;28;20413;-80
2022/09/03 08:52:26;;;;;;;10.45;4.50;;;;;;;20.56;100.00;100327.19;5032730;28;20045;-79
2022/09/03 08:55:01;;;;;;;7.70;4.45;;;;;;;20.57;100.00;100323.47;5031337;28;20059;-79
2022/09/03 08:57:37;;;;;;;12.07;5.60;;;;;;;20.71;100.00;100317.50;5032652;28;20037;-79
2022/09/03 09:00:06;;;;;;;10.13;6.55;;;;;;;20.78;100.00;100320.44;5031172;28;20056;-79
2022/09/03 09:02:48;;;;;;;10.85;6.30;;;;;;;20.75;100.00;100328.88;5032686;28;20045;-79
2022/09/03 09:05:24;;;;;;;10.60;6.15;;;;;;;20.89;100.00;100328.31;5032572;28;20042;-79
2022/09/03 09:08:03;;;;;;;10.02;6.40;;;;;;;20.65;100.00;100319.97;5032406;28;20542;-79
2022/09/03 09:10:39;;;;;;;11.65;6.85;;;;;;;20.73;100.00;100318.19;5032339;28;20060;-76
2022/09/03 09:13:16;;;;;;;9.32;5.78;;;;;;;20.84;100.00;100317.09;5031321;28;20080;-81
2022/09/03 09:15:51;;;;;;;12.45;6.40;;;;;;;20.89;100.00;100312.06;5032355;28;20049;-80
2022/09/03 09:18:30;;;;;;;8.77;5.60;;;;;;;20.83;100.00;100304.53;5032543;28;20107;-80
2022/09/03 09:21:08;;;;;;;9.82;5.53;;;;;;;20.79;100.00;100312.16;5032395;28;20080;-80
2022/09/03 09:23:41;;;;;;;7.63;5.28;;;;;;;20.81;100.00;100312.00;5032161;28;20068;-80
2022/09/03 09:26:13;;;;;;;9.23;4.75;;;;;;;20.97;100.00;100303.16;5032327;28;20046;-81
2022/09/03 09:28:43;;;;;;;8.27;4.53;;;;;;;20.93;100.00;100305.31;5032512;28;20052;-81
2022/09/03 09:31:17;;;;;;;7.35;4.32;;;;;;;21.07;100.00;100303.91;5032288;28;20045;-79
2022/09/03 09:33:46;;;;;;;9.25;4.18;;;;;;;21.33;100.00;100309.38;5032234;28;20045;-81
2022/09/03 09:36:18;;;;;;;7.05;3.78;;;;;;;21.28;100.00;100312.53;5032299;28;20093;-80
2022/09/03 09:38:47;;;;;;;7.55;4.13;;;;;;;21.27;100.00;100307.28;5030585;28;20049;-79
2022/09/03 09:41:18;;;;;;;9.18;4.20;;;;;;;21.36;100.00;100303.63;5031740;28;20479;-80
2022/09/03 09:43:47;;;;;;;8.05;4.40;;;;;;;21.29;100.00;100313.41;5031642;28;20053;-80
2022/09/03 09:46:20;;;;;;;7.63;4.10;;;;;;;21.33;100.00;100312.09;5032375;28;20051;-80
2022/09/03 09:48:52;;;;;;;7.60;3.80;;;;;;;21.28;100.00;100300.84;5031797;28;20054;-80
2022/09/03 09:51:23;;;;;;;9.20;4.10;;;;;;;21.25;100.00;100298.44;5030804;28;20412;-80
2022/09/03 09:54:01;;;;;;;7.97;4.05;;;;;;;21.41;100.00;100295.81;5031789;28;20037;-79
2022/09/03 09:56:30;;;;;;;9.95;3.47;;;;;;;21.55;100.00;100302.53;5030822;28;20059;-80
2022/09/03 09:59:06;;;;;;;6.38;3.65;;;;;;;21.53;100.00;100300.00;5031625;28;20337;-80
2022/09/03 10:01:37;;;;;;;9.95;4.55;;;;;;;21.50;100.00;100303.00;5031778;28;20101;-78
2022/09/03 10:04:11;;;;;;;9.35;3.97;;;;;;;21.52;100.00;100302.84;5031719;28;20046;-80
2022/09/03 10:06:56;;;;;;;6.75;3.85;;;;;;;21.53;100.00;100294.56;5031503;28;20115;-79
2022/09/03 10:09:27;;;;;;;8.40;3.78;;;;;;;21.61;100.00;100294.56;5032069;28;20042;-80
2022/09/03 10:12:14;;;;;;;8.57;4.07;;;;;;;21.69;100.00;100297.34;5031688;28;20041;-80
2022/09/03 10:14:47;;;;;;;6.10;3.70;;;;;;;21.67;100.00;100298.50;5031575;28;20046;-79
2022/09/03 10:17:22;;;;;;;9.68;3.40;;;;;;;21.71;100.00;100302.59;5031737;28;20067;-80
2022/09/03 10:23:05;;;;;;;8.35;3.70;;;;;;;21.93;100.00;100293.03;5031349;28;20103;-80
2022/09/03 10:25:49;;;;;;;6.95;4.20;;;;;;;21.98;100.00;100294.22;5031355;28;20052;-80
2022/09/03 10:28:18;;;;;;;6.70;3.45;;;;;;;21.87;100.00;100301.81;5031693;28;20508;-80
2022/09/03 10:31:03;;;;;;;6.82;3.70;;;;;;;22.07;100.00;100292.41;5029938;28;20504;-79
2022/09/03 10:33:38;;;;;;;5.75;3.38;;;;;;;22.14;100.00;100287.19;5031618;28;20116;-80
2022/09/03 10:36:18;;;;;;;5.05;3.17;;;;;;;22.25;100.00;100295.84;5031527;28;20053;-80
2022/09/03 10:38:53;;;;;;;7.10;3.67;;;;;;;22.37;100.00;100293.66;5031499;28;20045;-78
2022/09/03 10:41:36;;;;;;;7.70;3.47;;;;;;;22.38;100.00;100294.50;5031807;28;20132;-80
2022/09/03 10:44:20;;;;;;;6.82;3.70;;;;;;;22.27;100.00;100291.09;5030115;28;20472;-80
2022/09/03 10:46:55;;;;;;;;;;;;;;;22.32;100.00;100285.19;5031557;28;20065;-80
2022/09/03 10:49:36;;;;;;;7.80;3.55;;;;;;;22.15;100.00;100289.72;5029943;28;19982;-80
2022/09/03 10:52:14;;;;;;;8.50;3.58;;;;;;;22.37;100.00;100284.66;5034009;28;20049;-80
2022/09/03 10:54:59;;;;;;;5.38;2.88;;;;;;;22.50;100.00;100283.19;5033626;28;20060;-80
2022/09/03 10:57:40;;;;;;;6.57;2.97;;;;;;;22.65;100.00;100275.19;5033774;28;20057;-80
2022/09/03 11:00:11;;;;;;;5.60;3.05;;;;;;;22.65;100.00;100272.47;5035290;28;20045;-80
2022/09/03 11:03:12;;;;;;;6.55;3.00;;;;;;;22.63;100.00;100270.94;5034741;28;20042;-79
2022/09/03 11:05:44;;;;;;;5.20;2.83;;;;;;;22.36;100.00;100269.38;5033210;28;20128;-78
2022/09/03 11:08:18;;;;;;;8.38;3.15;;;;;;;22.49;93.81;100272.47;5034973;28;20042;-80
2022/09/03 11:10:53;;;;;;;5.53;2.75;;;;;;;22.38;83.61;100267.34;5034480;28;20041;-78
2022/09/03 11:13:27;;;;;;;6.35;2.95;;;;;;;22.14;81.60;100260.88;5034559;28;20144;-78
2022/09/03 11:15:58;;;;;;;5.43;2.78;;;;;;;22.12;74.20;100257.47;5032933;28;20463;-79
2022/09/03 11:18:32;;;;;;;6.25;3.00;;;;;;;22.16;70.35;100260.69;5049647;28;20045;-80
2022/09/03 11:21:05;;;;;;;7.20;2.58;;;;;;;22.22;65.40;100255.44;5034008;28;20124;-79
2022/09/03 11:23:43;;;;;;;5.03;3.22;;;;;;;22.42;62.97;100264.13;5034511;28;20053;-76
2022/09/03 11:26:15;;;;;;;7.70;2.72;;;;;;;22.59;59.50;100254.13;5037857;28;20049;-82
2022/09/03 11:28:54;;;;;;;5.47;2.90;;;;;;;22.77;57.11;100265.66;5043018;28;20111;-80
2022/09/03 11:31:31;;;;;;;4.95;2.58;;;;;;;22.61;56.08;100262.97;5039179;28;20966;-86
2022/09/03 11:34:05;;;;;;;6.68;3.25;;;;;;;22.92;57.48;100271.31;5039452;28;20106;-83
2022/09/03 11:36:37;;;;;;;4.53;2.85;;;;;;;23.01;57.76;100269.44;5043778;28;20569;-79
2022/09/03 11:39:19;;;;;;;5.05;2.75;;;;;;;23.03;56.26;100265.50;5042517;28;20045;-78
2022/09/03 11:42:03;;;;;;;6.47;3.13;;;;;;;23.09;55.33;100266.69;5053764;28;20089;-79
2022/09/03 11:44:36;;;;;;;7.60;3.15;;;;;;;23.17;53.52;100253.09;5053715;28;20041;-81
2022/09/03 11:47:16;;;;;;;5.82;3.50;;;;;;;23.21;53.06;100254.41;5050118;28;20069;-81